createdAt,value
2018-05-10T13:09:50.708Z,390
2018-05-10T13:10:50.704Z,375
2018-05-10T13:11:51.332Z,365
2018-05-10T13:12:50.542Z,355
2018-05-10T13:13:51.289Z,340
2018-05-10T13:14:51.458Z,320
2018-05-10T13:15:51.936Z,300
2018-05-10T13:16:52.290Z,280
2018-05-10T13:17:51.896Z,265
2018-05-10T13:18:52.130Z,260
2018-05-10T13:19:51.968Z,260
2018-05-10T13:20:52.193Z,260
2018-05-10T13:21:53.204Z,255
2018-05-10T13:22:52.624Z,240
2018-05-10T13:23:53.405Z,210
2018-05-10T13:24:53.239Z,215
2018-05-10T13:25:53.205Z,205
2018-05-10T13:26:53.774Z,195
2018-05-10T13:27:53.975Z,175
2018-05-10T13:28:54.275Z,175
2018-05-10T13:29:53.809Z,180
2018-05-10T13:30:53.727Z,190
2018-05-10T13:31:54.353Z,190
2018-05-10T13:32:54.277Z,195
2018-05-10T13:33:54.557Z,205
2018-05-10T13:34:54.609Z,210
2018-05-10T13:35:54.716Z,220
2018-05-10T13:36:54.136Z,235
2018-05-10T13:37:54.422Z,235
2018-05-10T13:38:55.141Z,240
2018-05-10T13:39:55.046Z,245
2018-05-10T13:40:54.594Z,250
2018-05-10T13:41:55.694Z,245
2018-05-10T13:42:55.372Z,240
2018-05-10T13:43:55.658Z,235
2018-05-10T13:44:55.137Z,235
2018-05-10T13:45:55.382Z,250
2018-05-10T13:46:55.698Z,265
2018-05-10T13:47:56.010Z,280
2018-05-10T13:48:55.714Z,290
2018-05-10T13:49:56.215Z,295
2018-05-10T13:50:56.687Z,295
2018-05-10T13:51:56.614Z,300
2018-05-10T13:52:57.177Z,305
2018-05-10T13:53:56.716Z,305
2018-05-10T13:54:57.193Z,300
2018-05-10T13:55:57.464Z,290
2018-05-10T13:56:57.204Z,285
2018-05-10T13:57:57.157Z,290
2018-05-10T13:58:58.186Z,305
2018-05-10T13:59:57.786Z,300
2018-05-10T14:00:58.270Z,290
2018-05-10T14:01:58.063Z,285
2018-05-10T14:02:58.144Z,280
2018-05-10T14:03:58.304Z,280
2018-05-10T14:04:57.960Z,285
2018-05-10T14:05:57.798Z,275
2018-05-10T14:06:58.432Z,255
2018-05-10T14:07:59.012Z,240
2018-05-10T14:08:59.656Z,225
2018-05-10T14:09:59.440Z,215
2018-05-10T14:10:59.329Z,205
2018-05-10T14:12:00.215Z,195
2018-05-10T14:12:59.531Z,195
2018-05-10T14:13:59.943Z,190
2018-05-10T14:14:59.884Z,185
2018-05-10T14:16:00.261Z,175
2018-05-10T14:17:00.521Z,165
2018-05-10T14:18:01.518Z,160
2018-05-10T14:19:02.074Z,145
2018-05-10T14:20:01.047Z,125
2018-05-10T14:21:00.962Z,110
2018-05-10T14:22:00.548Z,110
2018-05-10T14:23:00.586Z,105
2018-05-10T14:24:00.480Z,105
2018-05-10T14:25:01.191Z,110
2018-05-10T14:26:01.350Z,110
2018-05-10T14:27:01.427Z,100
2018-05-10T14:28:02.073Z,90
2018-05-10T14:29:01.574Z,80
2018-05-10T14:30:01.772Z,75
2018-05-10T14:31:01.566Z,75
2018-05-10T14:32:02.188Z,70
2018-05-10T14:33:02.149Z,70
2018-05-10T14:34:02.994Z,70
2018-05-10T14:35:02.474Z,65
2018-05-10T14:36:02.084Z,65
2018-05-10T14:37:02.523Z,70
2018-05-10T14:38:02.444Z,65
2018-05-10T14:39:04.144Z,65
2018-05-10T14:40:03.277Z,60
2018-05-10T14:41:04.017Z,65
2018-05-10T14:42:03.744Z,65
2018-05-10T14:43:02.953Z,65
2018-05-10T14:44:03.488Z,60
2018-05-10T14:45:04.329Z,60
2018-05-10T14:46:04.266Z,60
2018-05-10T14:47:04.329Z,60
2018-05-10T14:48:04.508Z,60
2018-05-10T14:49:04.403Z,55
2018-05-10T14:50:07.297Z,55
2018-05-10T14:51:06.197Z,55
2018-05-10T14:52:05.885Z,55
2018-05-10T14:53:06.433Z,55
2018-05-10T14:54:07.070Z,55
2018-05-10T14:55:04.791Z,55
2018-05-10T14:56:04.449Z,55
2018-05-10T14:57:04.974Z,55
2018-05-10T14:58:05.208Z,55
2018-05-10T14:59:05.512Z,55
2018-05-10T15:00:11.120Z,60
2018-05-10T15:01:04.980Z,60
2018-05-10T15:02:05.744Z,60
2018-05-10T15:03:06.286Z,65
2018-05-10T15:04:05.556Z,65
2018-05-10T15:05:05.897Z,70
2018-05-10T15:06:05.655Z,75
2018-05-10T15:07:04.950Z,75
2018-05-10T15:08:05.443Z,75
2018-05-10T15:09:06.007Z,70
2018-05-10T15:10:06.219Z,70
2018-05-10T15:11:05.823Z,70
2018-05-10T15:12:05.612Z,70
2018-05-10T15:13:06.246Z,70
2018-05-10T15:14:06.299Z,70
2018-05-10T15:15:06.467Z,75
2018-05-10T15:16:06.924Z,75
2018-05-10T15:17:07.035Z,70
2018-05-10T15:18:07.505Z,65
2018-05-10T15:19:07.735Z,65
2018-05-10T15:20:08.231Z,65
2018-05-10T15:21:08.258Z,70
2018-05-10T15:22:07.997Z,80
2018-05-10T15:23:08.214Z,85
2018-05-10T15:24:08.882Z,90
2018-05-10T15:25:09.416Z,95
2018-05-10T15:26:09.714Z,95
2018-05-10T15:27:09.683Z,95
2018-05-10T15:28:09.576Z,95
2018-05-10T15:29:09.282Z,90
2018-05-10T15:30:10.390Z,90
2018-05-10T15:31:10.264Z,90
2018-05-10T15:32:09.886Z,85
2018-05-10T15:33:10.121Z,90
2018-05-10T15:34:10.175Z,80
2018-05-10T15:35:10.282Z,75
2018-05-10T15:36:09.228Z,70
2018-05-10T15:37:09.724Z,65
2018-05-10T15:38:10.236Z,60
2018-05-10T15:39:11.540Z,60
2018-05-10T15:40:10.526Z,55
2018-05-10T15:41:10.058Z,55
2018-05-10T15:42:11.082Z,50
2018-05-10T15:43:10.593Z,50
2018-05-10T15:44:10.927Z,45
2018-05-10T15:45:10.286Z,40
2018-05-10T15:46:10.936Z,40
2018-05-10T15:47:11.784Z,35
2018-05-10T15:48:11.486Z,30
2018-05-10T15:49:11.339Z,30
2018-05-10T15:50:12.601Z,30
2018-05-10T15:51:12.301Z,30
2018-05-10T15:52:12.030Z,30
2018-05-10T15:53:12.811Z,30
2018-05-10T15:54:12.576Z,30
2018-05-10T15:55:12.700Z,35
2018-05-10T15:56:12.606Z,35
2018-05-10T15:57:13.301Z,40
2018-05-10T15:58:13.279Z,40
2018-05-10T15:59:13.423Z,35
2018-05-10T16:00:19.501Z,35
2018-05-10T16:01:13.393Z,35
2018-05-10T16:02:15.064Z,35
2018-05-10T16:03:13.416Z,30
2018-05-10T16:04:13.552Z,25
2018-05-10T16:05:13.352Z,25
2018-05-10T16:06:14.912Z,20
2018-05-10T16:07:15.236Z,15
2018-05-10T16:08:14.923Z,15
2018-05-10T16:09:14.659Z,10
2018-05-10T16:10:14.929Z,10
2018-05-10T16:11:15.323Z,10
2018-05-10T16:12:14.121Z,15
2018-05-10T16:13:14.608Z,15
2018-05-10T16:14:14.814Z,15
2018-05-10T16:15:16.541Z,15
2018-05-10T16:16:15.692Z,15
2018-05-10T16:17:15.916Z,15
2018-05-10T16:18:16.001Z,15
2018-05-10T16:19:16.351Z,15
2018-05-10T16:20:16.170Z,15
2018-05-10T16:21:16.086Z,15
2018-05-10T16:22:15.068Z,20
2018-05-10T16:23:16.206Z,20
2018-05-10T16:24:16.248Z,25
2018-05-10T16:25:16.315Z,30
2018-05-10T16:26:16.519Z,30
2018-05-10T16:27:16.127Z,35
2018-05-10T16:28:16.597Z,40
2018-05-10T16:29:16.337Z,40
2018-05-10T16:30:16.770Z,45
2018-05-10T16:31:16.843Z,45
2018-05-10T16:32:16.437Z,50
2018-05-10T16:33:16.820Z,50
2018-05-10T16:34:16.902Z,55
2018-05-10T16:35:17.711Z,55
2018-05-10T16:36:16.681Z,60
2018-05-10T16:37:17.519Z,60
2018-05-10T16:38:17.691Z,55
2018-05-10T16:39:18.462Z,55
2018-05-10T16:40:17.868Z,55
2018-05-10T16:41:17.658Z,55
2018-05-10T16:42:18.491Z,50
2018-05-10T16:43:18.016Z,50
2018-05-10T16:44:18.610Z,50
2018-05-10T16:45:18.606Z,50
2018-05-10T16:46:18.423Z,45
2018-05-10T16:47:18.992Z,45
2018-05-10T16:48:19.184Z,50
2018-05-10T16:49:19.457Z,50
2018-05-10T16:50:19.554Z,50
2018-05-10T16:51:21.434Z,50
2018-05-10T16:52:19.048Z,55
2018-05-10T16:53:19.568Z,55
2018-05-10T16:54:19.470Z,55
2018-05-10T16:55:19.634Z,60
2018-05-10T16:56:19.833Z,65
2018-05-10T16:57:20.133Z,70
2018-05-10T16:58:20.809Z,75
2018-05-10T16:59:21.053Z,80
2018-05-10T17:00:21.026Z,80
2018-05-10T17:01:21.406Z,80
2018-05-10T17:02:21.177Z,75
2018-05-10T17:03:20.781Z,75
2018-05-10T17:04:21.343Z,80
2018-05-10T17:05:21.096Z,85
2018-05-10T17:06:22.893Z,90
2018-05-10T17:07:21.400Z,95
2018-05-10T17:08:21.940Z,95
2018-05-10T17:09:22.615Z,90
2018-05-10T17:10:22.633Z,85
2018-05-10T17:11:22.679Z,80
2018-05-10T17:12:22.941Z,75
2018-05-10T17:13:22.792Z,70
2018-05-10T17:14:22.785Z,65
2018-05-10T17:15:22.822Z,60
2018-05-10T17:16:23.105Z,55
2018-05-10T17:17:22.901Z,50
2018-05-10T17:18:22.709Z,50
2018-05-10T17:19:23.052Z,45
2018-05-10T17:20:22.924Z,40
2018-05-10T17:21:23.237Z,35
2018-05-10T17:22:23.611Z,30
2018-05-10T17:23:24.088Z,30
2018-05-10T17:24:24.655Z,30
2018-05-10T17:25:24.525Z,25
2018-05-10T17:26:24.595Z,25
2018-05-10T17:27:24.671Z,25
2018-05-10T17:28:24.045Z,25
2018-05-10T17:29:25.116Z,25
2018-05-10T17:30:24.993Z,30
2018-05-10T17:31:25.913Z,30
2018-05-10T17:32:25.299Z,30
2018-05-10T17:33:26.666Z,30
2018-05-10T17:34:25.160Z,30
2018-05-10T17:35:25.508Z,25
2018-05-10T17:36:24.653Z,25
2018-05-10T17:37:24.951Z,25
2018-05-10T17:38:25.027Z,25
2018-05-10T17:39:25.530Z,20
2018-05-10T17:40:25.103Z,20
2018-05-10T17:41:25.313Z,20
2018-05-10T17:42:25.289Z,15
2018-05-10T17:43:26.147Z,15
2018-05-10T17:44:25.339Z,15
2018-05-10T17:45:25.385Z,15
2018-05-10T17:46:27.060Z,15
2018-05-10T17:47:26.904Z,15
2018-05-10T17:48:27.522Z,10
2018-05-10T17:49:26.939Z,10
2018-05-10T17:55:32.996Z,10
2018-05-10T17:56:34.747Z,10
2018-05-10T17:57:36.010Z,10
2018-05-10T17:58:37.409Z,10
2018-05-10T17:59:34.157Z,10
2018-05-10T18:00:31.846Z,10
2018-05-10T18:01:31.773Z,10
2018-05-10T18:02:32.727Z,5
2018-05-10T18:03:32.643Z,10
2018-05-10T18:04:32.508Z,10
2018-05-10T18:05:33.084Z,5
2018-05-10T18:06:32.761Z,5
2018-05-10T18:07:32.581Z,5
2018-05-10T18:08:32.571Z,5
2018-05-10T18:09:32.744Z,5
2018-05-10T18:10:33.492Z,5
2018-05-10T18:11:33.516Z,5
2018-05-10T18:12:33.293Z,5
2018-05-10T18:13:33.668Z,5
2018-05-10T18:14:33.624Z,5
2018-05-10T18:15:34.227Z,5
2018-05-10T18:16:34.195Z,5
2018-05-10T18:17:34.000Z,5
2018-05-10T18:18:34.239Z,5
2018-05-10T18:19:33.838Z,5
2018-05-10T18:20:34.052Z,5
2018-05-10T18:21:34.862Z,5
2018-05-10T18:22:34.829Z,5
2018-05-10T18:23:34.990Z,0
2018-05-10T18:24:34.414Z,0
2018-05-10T18:25:35.144Z,0
2018-05-10T18:26:34.935Z,0
2018-05-10T18:27:35.231Z,0
2018-05-10T18:28:34.769Z,0
2018-05-10T18:29:35.335Z,0
2018-05-10T18:30:34.750Z,0
2018-05-10T18:31:35.902Z,0
2018-05-10T18:32:36.004Z,0
2018-05-10T18:33:35.659Z,0
2018-05-10T18:34:35.994Z,0
2018-05-10T18:35:35.864Z,0
2018-05-10T18:36:35.822Z,0
2018-05-10T18:37:36.311Z,0
2018-05-10T18:38:36.144Z,0
2018-05-10T18:39:35.304Z,0
2018-05-10T18:40:35.934Z,0
2018-05-10T18:41:35.951Z,0
2018-05-10T18:42:36.188Z,0
2018-05-10T18:43:36.972Z,0
2018-05-10T18:44:36.490Z,0
2018-05-10T18:45:36.543Z,0
2018-05-10T18:46:37.812Z,0
2018-05-10T18:47:37.371Z,0
2018-05-10T18:48:37.125Z,0
2018-05-10T18:49:37.610Z,0
2018-05-10T18:50:37.909Z,0
2018-05-10T18:51:37.932Z,0
2018-05-10T18:52:37.717Z,0
2018-05-10T18:53:38.530Z,0
2018-05-10T18:54:38.830Z,0
2018-05-10T18:55:38.321Z,0
2018-05-10T18:56:38.348Z,0
2018-05-10T18:57:38.590Z,0
2018-05-10T18:58:38.756Z,0
2018-05-10T18:59:39.227Z,0
2018-05-10T19:00:38.985Z,0
2018-05-10T19:01:39.593Z,0
2018-05-10T19:02:39.464Z,0
2018-05-10T19:03:39.424Z,0
2018-05-10T19:04:39.887Z,0
2018-05-10T19:05:40.077Z,0
2018-05-10T19:06:40.817Z,0
2018-05-10T19:07:40.329Z,0
2018-05-10T19:08:40.834Z,0
2018-05-10T19:09:41.145Z,0
2018-05-10T19:10:40.866Z,0
2018-05-10T19:11:41.481Z,0
2018-05-10T19:12:41.749Z,0
2018-05-10T19:13:41.887Z,0
2018-05-10T19:14:41.775Z,0
2018-05-10T19:15:41.765Z,0
2018-05-10T19:16:42.077Z,0
2018-05-10T19:17:41.864Z,0
2018-05-10T19:18:41.186Z,0
2018-05-10T19:19:41.771Z,0
2018-05-10T19:20:41.744Z,0
2018-05-10T19:21:42.008Z,0
2018-05-10T19:22:41.548Z,0
2018-05-10T19:23:42.044Z,0
2018-05-10T19:24:41.270Z,0
2018-05-10T19:25:42.084Z,0
2018-05-10T19:26:42.373Z,0
2018-05-10T19:27:42.869Z,0
2018-05-10T19:28:43.371Z,0
2018-05-10T19:29:43.579Z,0
2018-05-10T19:30:43.791Z,0
2018-05-10T19:31:44.309Z,0
2018-05-10T19:32:44.324Z,0
2018-05-10T19:33:44.204Z,0
2018-05-10T19:34:44.492Z,0
2018-05-10T19:35:44.930Z,0
2018-05-10T19:36:43.882Z,0
2018-05-10T19:37:44.610Z,0
2018-05-10T19:38:44.892Z,0
2018-05-10T19:39:44.608Z,0
2018-05-10T19:40:45.144Z,0
2018-05-10T19:41:44.883Z,0
2018-05-10T19:42:45.226Z,0
2018-05-10T19:43:44.931Z,0
2018-05-10T19:44:45.231Z,0
2018-05-10T19:45:46.279Z,0
2018-05-10T19:46:46.092Z,0
2018-05-10T19:47:45.608Z,0
2018-05-10T19:48:45.362Z,0
2018-05-10T19:49:45.963Z,0
2018-05-10T19:50:46.250Z,0
2018-05-10T19:51:46.213Z,0
2018-05-10T19:52:45.993Z,0
2018-05-10T19:53:45.972Z,0
2018-05-10T19:54:47.759Z,0
2018-05-10T19:55:48.455Z,0
2018-05-10T19:56:47.465Z,0
2018-05-10T19:57:46.873Z,0
2018-05-10T19:58:47.308Z,0
2018-05-10T19:59:47.935Z,0
2018-05-10T20:00:47.296Z,0
2018-05-10T20:01:47.336Z,0
2018-05-10T20:02:47.784Z,0
2018-05-10T20:03:46.510Z,0
2018-05-10T20:04:47.256Z,0
2018-05-10T20:05:47.335Z,0
2018-05-10T20:06:47.489Z,0
2018-05-10T20:07:47.200Z,0
2018-05-10T20:08:47.704Z,0
2018-05-10T20:09:47.798Z,0
2018-05-10T20:10:47.495Z,0
2018-05-10T20:11:47.911Z,0
2018-05-10T20:12:48.635Z,0
2018-05-10T20:13:49.006Z,0
2018-05-10T20:14:48.683Z,0
2018-05-10T20:15:49.417Z,0
2018-05-10T20:16:48.932Z,0
2018-05-10T20:17:49.700Z,0
2018-05-10T20:18:49.472Z,0
2018-05-10T20:19:49.450Z,0
2018-05-10T20:20:49.182Z,0
2018-05-10T20:21:50.467Z,0
2018-05-10T20:22:49.640Z,0
2018-05-10T20:23:49.891Z,0
2018-05-10T20:24:50.872Z,0
2018-05-10T20:25:50.500Z,0
2018-05-10T20:26:50.823Z,0
2018-05-10T20:27:50.548Z,0
2018-05-10T20:28:51.013Z,0
2018-05-10T20:29:50.561Z,0
2018-05-10T20:30:50.759Z,0
2018-05-10T20:31:50.994Z,0
2018-05-10T20:32:51.558Z,0
2018-05-10T20:33:51.205Z,0
2018-05-10T20:34:51.314Z,0
2018-05-10T20:35:51.385Z,0
2018-05-10T20:36:52.137Z,0
2018-05-10T20:37:51.858Z,0
2018-05-10T20:38:52.052Z,0
2018-05-10T20:39:52.635Z,0
2018-05-10T20:40:52.819Z,0
2018-05-10T20:41:52.757Z,0
2018-05-10T20:42:53.060Z,0
2018-05-10T20:43:53.635Z,0
2018-05-10T20:44:53.938Z,0
2018-05-10T20:45:53.609Z,0
2018-05-10T20:46:53.378Z,0
2018-05-10T20:47:53.573Z,0
2018-05-10T20:48:54.084Z,0
2018-05-10T20:49:54.246Z,0
2018-05-10T20:50:54.766Z,0
2018-05-10T20:51:54.540Z,0
2018-05-10T20:52:53.850Z,0
2018-05-10T20:53:54.801Z,0
2018-05-10T20:54:54.986Z,0
2018-05-10T20:55:54.135Z,0
2018-05-10T20:56:54.639Z,0
2018-05-10T20:57:55.113Z,0
2018-05-10T20:58:55.058Z,0
2018-05-10T20:59:55.611Z,0
2018-05-10T21:00:56.574Z,0
2018-05-10T21:01:56.432Z,0
2018-05-10T21:02:55.679Z,0
2018-05-10T21:03:55.734Z,0
2018-05-10T21:04:55.489Z,0
2018-05-10T21:05:55.660Z,0
2018-05-10T21:06:56.919Z,0
2018-05-10T21:07:56.464Z,0
2018-05-10T21:08:56.870Z,0
2018-05-10T21:09:57.249Z,0
2018-05-10T21:10:57.040Z,0
2018-05-10T21:11:57.685Z,0
2018-05-10T21:12:57.918Z,0
2018-05-10T21:13:58.009Z,0
2018-05-10T21:14:58.086Z,0
2018-05-10T21:15:58.485Z,0
2018-05-10T21:16:58.941Z,0
2018-05-10T21:17:58.711Z,0
2018-05-10T21:18:58.868Z,0
2018-05-10T21:19:59.652Z,0
2018-05-10T21:20:59.702Z,0
2018-05-10T21:21:59.624Z,0
2018-05-10T21:23:00.403Z,0
2018-05-10T21:24:00.048Z,0
2018-05-10T21:25:00.987Z,0
2018-05-10T21:26:00.074Z,0
2018-05-10T21:27:00.244Z,0
2018-05-10T21:28:00.817Z,0
2018-05-10T21:29:00.429Z,0
2018-05-10T21:30:00.942Z,0
2018-05-10T21:31:00.984Z,0
2018-05-10T21:32:01.984Z,0
2018-05-10T21:33:01.656Z,0
2018-05-10T21:34:01.868Z,0
2018-05-10T21:35:01.773Z,0
2018-05-10T21:36:01.440Z,0
2018-05-10T21:37:01.927Z,0
2018-05-10T21:38:02.297Z,0
2018-05-10T21:39:02.199Z,0
2018-05-10T21:40:01.924Z,0
2018-05-10T21:41:02.206Z,0
2018-05-10T21:42:02.431Z,0
2018-05-10T21:43:03.644Z,0
2018-05-10T21:44:03.099Z,0
2018-05-10T21:45:03.582Z,0
2018-05-10T21:46:03.556Z,0
2018-05-10T21:47:03.739Z,0
2018-05-10T21:48:04.406Z,0
2018-05-10T21:49:03.965Z,0
2018-05-10T21:50:05.365Z,0
2018-05-10T21:51:03.896Z,0
2018-05-10T21:52:04.190Z,0
2018-05-10T21:53:04.880Z,0
2018-05-10T21:54:03.735Z,0
2018-05-10T21:55:05.112Z,0
2018-05-10T21:56:04.806Z,0
2018-05-10T21:57:04.693Z,0
2018-05-10T21:58:05.558Z,0
2018-05-10T21:59:05.024Z,0
2018-05-10T22:00:32.089Z,0
2018-05-10T22:01:08.036Z,0
2018-05-10T22:02:11.423Z,0
2018-05-10T22:03:05.120Z,0
2018-05-10T22:04:05.381Z,0
2018-05-10T22:05:06.127Z,0
2018-05-10T22:06:06.177Z,0
2018-05-10T22:07:05.939Z,0
2018-05-10T22:08:05.488Z,0
2018-05-10T22:09:06.558Z,0
2018-05-10T22:10:06.320Z,0
2018-05-10T22:11:06.059Z,0
2018-05-10T22:12:07.050Z,0
2018-05-10T22:13:06.397Z,0
2018-05-10T22:14:07.281Z,0
2018-05-10T22:15:07.036Z,0
2018-05-10T22:16:07.632Z,0
2018-05-10T22:17:07.507Z,0
2018-05-10T22:18:06.755Z,0
2018-05-10T22:19:07.309Z,0
2018-05-10T22:20:07.791Z,0
2018-05-10T22:21:07.729Z,0
2018-05-10T22:22:07.930Z,0
2018-05-10T22:23:08.539Z,0
2018-05-10T22:24:08.344Z,0
2018-05-10T22:25:08.315Z,0
2018-05-10T22:26:08.062Z,0
2018-05-10T22:27:08.620Z,0
2018-05-10T22:28:08.620Z,0
2018-05-10T22:29:08.926Z,0
2018-05-10T22:30:09.766Z,0
2018-05-10T22:31:09.882Z,0
2018-05-10T22:32:09.138Z,0
2018-05-10T22:33:08.732Z,0
2018-05-10T22:34:11.535Z,0
2018-05-10T22:35:09.951Z,0
2018-05-10T22:36:10.494Z,0
2018-05-10T22:37:09.877Z,0
2018-05-10T22:38:09.863Z,0
2018-05-10T22:39:10.683Z,0
2018-05-10T22:40:09.917Z,0
2018-05-10T22:41:10.581Z,0
2018-05-10T22:42:11.868Z,0
2018-05-10T22:43:10.476Z,0
2018-05-10T22:44:12.189Z,0
2018-05-10T22:45:11.431Z,0
2018-05-10T22:46:11.794Z,0
2018-05-10T22:47:10.943Z,0
2018-05-10T22:48:11.747Z,0
2018-05-10T22:49:11.676Z,0
2018-05-10T22:50:11.977Z,0
2018-05-10T22:51:12.776Z,0
2018-05-10T22:52:13.285Z,0
2018-05-10T22:53:13.015Z,0
2018-05-10T22:54:12.901Z,0
2018-05-10T22:55:12.378Z,0
2018-05-10T22:56:12.514Z,0
2018-05-10T22:57:12.787Z,0
2018-05-10T22:58:12.604Z,0
2018-05-10T22:59:12.762Z,0
2018-05-10T23:00:19.474Z,0
2018-05-10T23:01:19.270Z,0
2018-05-10T23:02:19.481Z,0
2018-05-10T23:03:19.507Z,0
2018-05-10T23:04:19.522Z,0
2018-05-10T23:05:19.775Z,0
2018-05-10T23:06:20.575Z,0
2018-05-10T23:07:20.056Z,0
2018-05-10T23:08:20.076Z,0
2018-05-10T23:09:20.272Z,0
2018-05-10T23:10:20.645Z,0
2018-05-10T23:11:19.802Z,0
2018-05-10T23:12:20.999Z,0
2018-05-10T23:13:20.610Z,0
2018-05-10T23:14:20.781Z,0
2018-05-10T23:15:21.041Z,0
2018-05-10T23:16:20.825Z,0
2018-05-10T23:17:20.854Z,0
2018-05-10T23:18:20.525Z,0
2018-05-10T23:19:20.487Z,0
2018-05-10T23:20:21.087Z,0
2018-05-10T23:21:20.760Z,0
2018-05-10T23:22:22.090Z,0
2018-05-10T23:23:21.652Z,0
2018-05-10T23:24:21.183Z,0
2018-05-10T23:25:21.474Z,0
2018-05-10T23:26:21.784Z,0
2018-05-10T23:27:21.442Z,0
2018-05-10T23:28:22.276Z,0
2018-05-10T23:29:21.770Z,0
2018-05-10T23:30:22.020Z,0
2018-05-10T23:31:21.784Z,0
2018-05-10T23:32:22.281Z,0
2018-05-10T23:33:22.652Z,0
2018-05-10T23:34:22.551Z,0
2018-05-10T23:35:22.299Z,0
2018-05-10T23:36:22.991Z,0
2018-05-10T23:37:22.462Z,0
2018-05-10T23:38:22.813Z,0
2018-05-10T23:39:23.422Z,0
2018-05-10T23:40:22.872Z,0
2018-05-10T23:41:22.961Z,0
2018-05-10T23:42:23.794Z,0
2018-05-10T23:43:23.784Z,0
2018-05-10T23:44:23.872Z,0
2018-05-10T23:45:23.360Z,0
2018-05-10T23:46:23.221Z,0
2018-05-10T23:47:24.140Z,0
2018-05-10T23:48:24.748Z,0
2018-05-10T23:49:24.251Z,0
2018-05-10T23:50:24.217Z,0
2018-05-10T23:51:24.024Z,0
2018-05-10T23:52:24.324Z,0
2018-05-10T23:53:23.599Z,0
2018-05-10T23:54:24.164Z,0
2018-05-10T23:55:23.652Z,0
2018-05-10T23:56:23.912Z,0
2018-05-10T23:57:24.578Z,0
2018-05-10T23:58:24.349Z,0
2018-05-10T23:59:24.837Z,0
